Terminal Aerodrome Forecast
Issued by NWS

Home | Current Version | Previous Version | Text Only | Print | Product List | Glossary On
Versions: 1 2 3 4 5 6 7 8 9 10 11 12 13 14 15 16 17 18 19 20
000
FTUS43 KILX 060538
TAFBMI
TAF
KBMI 060538Z 0606/0706 08006KT 1SM BR BKN001
      TEMPO 0606/0608 2SM BR SCT002
     FM060800 09005KT 3/4SM BR OVC001
     FM061100 VRB04KT 1/2SM FZFG OVC001
     FM061400 33005KT 3/4SM BR OVC002
     FM061600 31007KT 2SM BR OVC004
     FM061900 28011KT P6SM SCT015=

USA.gov is the U.S. government's official web portal to all federal, state and local government web resources and services.